sensor_id;sensor_type;location;lat;lon;timestamp;P1;durP1;ratioP1;P2;durP2;ratioP2
6689;SDS011;3382;51.576;8.076;2022-12-07T00:01:17;2.70;;;2.47;;
6689;SDS011;3382;51.576;8.076;2022-12-07T00:03:44;3.00;;;2.30;;
6689;SDS011;3382;51.576;8.076;2022-12-07T00:06:11;3.07;;;2.33;;
6689;SDS011;3382;51.576;8.076;2022-12-07T00:08:38;4.33;;;3.57;;
6689;SDS011;3382;51.576;8.076;2022-12-07T00:11:15;7.07;;;6.13;;
6689;SDS011;3382;51.576;8.076;2022-12-07T00:13:42;3.17;;;2.63;;
6689;SDS011;3382;51.576;8.076;2022-12-07T00:16:09;2.40;;;2.20;;
6689;SDS011;3382;51.576;8.076;2022-12-07T00:18:40;3.67;;;2.60;;
6689;SDS011;3382;51.576;8.076;2022-12-07T00:21:09;2.60;;;2.40;;
6689;SDS011;3382;51.576;8.076;2022-12-07T00:23:37;2.50;;;2.30;;
6689;SDS011;3382;51.576;8.076;2022-12-07T00:26:06;5.73;;;2.60;;
6689;SDS011;3382;51.576;8.076;2022-12-07T00:28:33;2.60;;;2.40;;
6689;SDS011;3382;51.576;8.076;2022-12-07T00:31:09;4.63;;;4.13;;
6689;SDS011;3382;51.576;8.076;2022-12-07T00:33:37;5.23;;;4.73;;
6689;SDS011;3382;51.576;8.076;2022-12-07T00:36:07;3.70;;;2.50;;
6689;SDS011;3382;51.576;8.076;2022-12-07T00:38:38;2.80;;;2.37;;
6689;SDS011;3382;51.576;8.076;2022-12-07T00:41:05;3.40;;;3.10;;
6689;SDS011;3382;51.576;8.076;2022-12-07T00:43:39;2.53;;;2.33;;
6689;SDS011;3382;51.576;8.076;2022-12-07T00:46:05;4.57;;;2.77;;
6689;SDS011;3382;51.576;8.076;2022-12-07T00:48:31;5.00;;;4.30;;
6689;SDS011;3382;51.576;8.076;2022-12-07T00:50:57;2.60;;;2.40;;
6689;SDS011;3382;51.576;8.076;2022-12-07T00:53:23;3.57;;;2.37;;
6689;SDS011;3382;51.576;8.076;2022-12-07T00:55:49;2.70;;;2.50;;
6689;SDS011;3382;51.576;8.076;2022-12-07T00:58:15;5.67;;;2.60;;
6689;SDS011;3382;51.576;8.076;2022-12-07T01:00:41;3.00;;;2.60;;
6689;SDS011;3382;51.576;8.076;2022-12-07T01:03:09;3.10;;;2.67;;
6689;SDS011;3382;51.576;8.076;2022-12-07T01:05:36;3.83;;;3.40;;
6689;SDS011;3382;51.576;8.076;2022-12-07T01:08:02;2.43;;;2.23;;
6689;SDS011;3382;51.576;8.076;2022-12-07T01:10:28;3.23;;;2.57;;
6689;SDS011;3382;51.576;8.076;2022-12-07T01:12:55;4.10;;;3.73;;
6689;SDS011;3382;51.576;8.076;2022-12-07T01:15:21;3.00;;;2.40;;
6689;SDS011;3382;51.576;8.076;2022-12-07T01:17:47;8.63;;;7.53;;
6689;SDS011;3382;51.576;8.076;2022-12-07T01:20:12;3.50;;;3.20;;
6689;SDS011;3382;51.576;8.076;2022-12-07T01:22:39;2.63;;;2.10;;
6689;SDS011;3382;51.576;8.076;2022-12-07T01:25:06;2.63;;;2.43;;
6689;SDS011;3382;51.576;8.076;2022-12-07T01:27:33;2.90;;;2.20;;
6689;SDS011;3382;51.576;8.076;2022-12-07T01:29:59;3.23;;;2.47;;
6689;SDS011;3382;51.576;8.076;2022-12-07T01:32:25;2.30;;;2.10;;
6689;SDS011;3382;51.576;8.076;2022-12-07T01:34:51;5.53;;;5.00;;
6689;SDS011;3382;51.576;8.076;2022-12-07T01:37:17;7.23;;;5.73;;
6689;SDS011;3382;51.576;8.076;2022-12-07T01:39:42;2.80;;;2.40;;
6689;SDS011;3382;51.576;8.076;2022-12-07T01:42:11;2.93;;;2.30;;
6689;SDS011;3382;51.576;8.076;2022-12-07T01:47:41;4.00;;;3.60;;
6689;SDS011;3382;51.576;8.076;2022-12-07T01:50:08;2.30;;;2.10;;
6689;SDS011;3382;51.576;8.076;2022-12-07T01:52:34;2.23;;;2.03;;
6689;SDS011;3382;51.576;8.076;2022-12-07T01:55:09;2.90;;;2.40;;
6689;SDS011;3382;51.576;8.076;2022-12-07T01:57:39;3.37;;;2.47;;
6689;SDS011;3382;51.576;8.076;2022-12-07T02:00:06;2.93;;;2.20;;
6689;SDS011;3382;51.576;8.076;2022-12-07T02:02:35;3.33;;;2.27;;
6689;SDS011;3382;51.576;8.076;2022-12-07T02:05:04;4.77;;;3.83;;
6689;SDS011;3382;51.576;8.076;2022-12-07T02:07:31;5.00;;;4.53;;
6689;SDS011;3382;51.576;8.076;2022-12-07T02:12:58;6.37;;;5.80;;
6689;SDS011;3382;51.576;8.076;2022-12-07T02:18:20;2.63;;;2.40;;
6689;SDS011;3382;51.576;8.076;2022-12-07T02:29:49;1.90;;;1.80;;
6689;SDS011;3382;51.576;8.076;2022-12-07T02:35:17;5.20;;;4.73;;
6689;SDS011;3382;51.576;8.076;2022-12-07T02:40:19;2.73;;;2.53;;
6689;SDS011;3382;51.576;8.076;2022-12-07T02:42:58;11.60;;;9.20;;
6689;SDS011;3382;51.576;8.076;2022-12-07T02:45:40;9.93;;;8.17;;
6689;SDS011;3382;51.576;8.076;2022-12-07T02:48:07;8.93;;;8.03;;
6689;SDS011;3382;51.576;8.076;2022-12-07T02:50:36;2.37;;;2.17;;
6689;SDS011;3382;51.576;8.076;2022-12-07T02:53:02;4.87;;;4.43;;
6689;SDS011;3382;51.576;8.076;2022-12-07T02:55:29;2.77;;;2.27;;
6689;SDS011;3382;51.576;8.076;2022-12-07T03:00:41;6.77;;;5.73;;
6689;SDS011;3382;51.576;8.076;2022-12-07T03:03:17;6.63;;;5.97;;
6689;SDS011;3382;51.576;8.076;2022-12-07T03:05:52;2.87;;;2.67;;
6689;SDS011;3382;51.576;8.076;2022-12-07T03:08:32;2.80;;;2.60;;
6689;SDS011;3382;51.576;8.076;2022-12-07T03:11:23;2.37;;;2.10;;
6689;SDS011;3382;51.576;8.076;2022-12-07T03:14:41;2.10;;;1.90;;
6689;SDS011;3382;51.576;8.076;2022-12-07T03:16:51;4.50;;;4.07;;
6689;SDS011;3382;51.576;8.076;2022-12-07T03:19:26;6.47;;;5.87;;
6689;SDS011;3382;51.576;8.076;2022-12-07T03:22:05;1.97;;;1.87;;
6689;SDS011;3382;51.576;8.076;2022-12-07T03:24:57;5.93;;;5.37;;
6689;SDS011;3382;51.576;8.076;2022-12-07T03:27:27;2.90;;;2.17;;
6689;SDS011;3382;51.576;8.076;2022-12-07T03:30:02;2.57;;;2.10;;
6689;SDS011;3382;51.576;8.076;2022-12-07T03:43:08;10.07;;;8.63;;
6689;SDS011;3382;51.576;8.076;2022-12-07T03:45:38;3.53;;;2.70;;
6689;SDS011;3382;51.576;8.076;2022-12-07T03:50:50;8.77;;;7.87;;
6689;SDS011;3382;51.576;8.076;2022-12-07T03:53:22;3.57;;;3.27;;
6689;SDS011;3382;51.576;8.076;2022-12-07T03:56:04;5.00;;;4.43;;
6689;SDS011;3382;51.576;8.076;2022-12-07T03:58:33;2.17;;;2.00;;
6689;SDS011;3382;51.576;8.076;2022-12-07T04:00:59;1.93;;;1.60;;
6689;SDS011;3382;51.576;8.076;2022-12-07T04:03:25;1.77;;;1.67;;
6689;SDS011;3382;51.576;8.076;2022-12-07T04:05:51;5.23;;;4.03;;
6689;SDS011;3382;51.576;8.076;2022-12-07T04:08:17;2.07;;;1.67;;
6689;SDS011;3382;51.576;8.076;2022-12-07T04:10:42;4.00;;;3.63;;
6689;SDS011;3382;51.576;8.076;2022-12-07T04:13:08;2.37;;;2.17;;
6689;SDS011;3382;51.576;8.076;2022-12-07T04:15:34;2.30;;;1.63;;
6689;SDS011;3382;51.576;8.076;2022-12-07T04:17:59;5.73;;;4.30;;
6689;SDS011;3382;51.576;8.076;2022-12-07T04:20:25;2.13;;;1.93;;
6689;SDS011;3382;51.576;8.076;2022-12-07T04:22:50;3.33;;;2.77;;
6689;SDS011;3382;51.576;8.076;2022-12-07T04:25:16;1.90;;;1.70;;
6689;SDS011;3382;51.576;8.076;2022-12-07T04:27:42;8.40;;;7.60;;
6689;SDS011;3382;51.576;8.076;2022-12-07T04:30:07;2.37;;;1.80;;
6689;SDS011;3382;51.576;8.076;2022-12-07T04:32:34;3.37;;;2.90;;
6689;SDS011;3382;51.576;8.076;2022-12-07T04:34:59;5.60;;;3.90;;
6689;SDS011;3382;51.576;8.076;2022-12-07T04:37:25;11.97;;;10.50;;
6689;SDS011;3382;51.576;8.076;2022-12-07T04:39:50;3.23;;;2.93;;
6689;SDS011;3382;51.576;8.076;2022-12-07T04:42:16;2.13;;;1.83;;
6689;SDS011;3382;51.576;8.076;2022-12-07T04:44:41;3.40;;;2.00;;
6689;SDS011;3382;51.576;8.076;2022-12-07T04:47:07;2.17;;;1.87;;
6689;SDS011;3382;51.576;8.076;2022-12-07T04:49:33;8.33;;;7.60;;
6689;SDS011;3382;51.576;8.076;2022-12-07T04:51:58;6.70;;;5.63;;
6689;SDS011;3382;51.576;8.076;2022-12-07T04:54:24;2.63;;;2.23;;
6689;SDS011;3382;51.576;8.076;2022-12-07T04:56:49;3.17;;;2.57;;
6689;SDS011;3382;51.576;8.076;2022-12-07T04:59:15;2.33;;;2.13;;
6689;SDS011;3382;51.576;8.076;2022-12-07T05:01:42;5.47;;;2.20;;
6689;SDS011;3382;51.576;8.076;2022-12-07T05:04:08;5.63;;;3.50;;
6689;SDS011;3382;51.576;8.076;2022-12-07T05:06:34;5.63;;;5.00;;
6689;SDS011;3382;51.576;8.076;2022-12-07T05:09:00;10.87;;;5.87;;
6689;SDS011;3382;51.576;8.076;2022-12-07T05:11:26;5.87;;;4.53;;
6689;SDS011;3382;51.576;8.076;2022-12-07T05:14:24;6.93;;;4.63;;
6689;SDS011;3382;51.576;8.076;2022-12-07T05:16:50;3.80;;;3.50;;
6689;SDS011;3382;51.576;8.076;2022-12-07T05:19:16;3.77;;;3.33;;
6689;SDS011;3382;51.576;8.076;2022-12-07T05:21:43;7.67;;;5.97;;
6689;SDS011;3382;51.576;8.076;2022-12-07T05:24:09;5.47;;;4.97;;
6689;SDS011;3382;51.576;8.076;2022-12-07T05:26:37;5.37;;;4.70;;
6689;SDS011;3382;51.576;8.076;2022-12-07T05:29:02;4.57;;;3.53;;
6689;SDS011;3382;51.576;8.076;2022-12-07T05:31:28;2.60;;;2.40;;
6689;SDS011;3382;51.576;8.076;2022-12-07T05:33:54;3.70;;;2.73;;
6689;SDS011;3382;51.576;8.076;2022-12-07T05:36:20;7.47;;;4.47;;
6689;SDS011;3382;51.576;8.076;2022-12-07T05:38:45;10.47;;;6.27;;
6689;SDS011;3382;51.576;8.076;2022-12-07T05:41:15;4.97;;;2.90;;
6689;SDS011;3382;51.576;8.076;2022-12-07T05:44:01;6.90;;;3.23;;
6689;SDS011;3382;51.576;8.076;2022-12-07T05:46:27;7.43;;;5.73;;
6689;SDS011;3382;51.576;8.076;2022-12-07T05:48:52;4.30;;;2.93;;
6689;SDS011;3382;51.576;8.076;2022-12-07T05:51:18;6.63;;;3.80;;
6689;SDS011;3382;51.576;8.076;2022-12-07T05:53:44;3.63;;;2.10;;
6689;SDS011;3382;51.576;8.076;2022-12-07T05:56:10;3.50;;;2.20;;
6689;SDS011;3382;51.576;8.076;2022-12-07T05:58:36;4.43;;;2.50;;
6689;SDS011;3382;51.576;8.076;2022-12-07T06:01:20;5.13;;;2.17;;
6689;SDS011;3382;51.576;8.076;2022-12-07T06:03:45;4.10;;;1.90;;
6689;SDS011;3382;51.576;8.076;2022-12-07T06:06:11;11.67;;;7.10;;
6689;SDS011;3382;51.576;8.076;2022-12-07T06:08:37;3.83;;;2.37;;
6689;SDS011;3382;51.576;8.076;2022-12-07T06:11:02;8.03;;;7.23;;
6689;SDS011;3382;51.576;8.076;2022-12-07T06:13:46;6.37;;;4.93;;
6689;SDS011;3382;51.576;8.076;2022-12-07T06:16:12;4.13;;;3.07;;
6689;SDS011;3382;51.576;8.076;2022-12-07T06:18:37;3.73;;;2.40;;
6689;SDS011;3382;51.576;8.076;2022-12-07T06:21:03;2.87;;;1.90;;
6689;SDS011;3382;51.576;8.076;2022-12-07T06:23:29;4.00;;;2.03;;
6689;SDS011;3382;51.576;8.076;2022-12-07T06:25:54;5.47;;;2.07;;
6689;SDS011;3382;51.576;8.076;2022-12-07T06:28:20;6.27;;;5.37;;
6689;SDS011;3382;51.576;8.076;2022-12-07T06:30:45;4.77;;;2.20;;
6689;SDS011;3382;51.576;8.076;2022-12-07T06:33:11;4.93;;;4.10;;
6689;SDS011;3382;51.576;8.076;2022-12-07T06:35:36;4.20;;;3.03;;
6689;SDS011;3382;51.576;8.076;2022-12-07T06:38:02;3.10;;;2.10;;
6689;SDS011;3382;51.576;8.076;2022-12-07T06:40:27;4.57;;;2.57;;
6689;SDS011;3382;51.576;8.076;2022-12-07T06:42:53;5.47;;;3.40;;
6689;SDS011;3382;51.576;8.076;2022-12-07T06:45:19;5.70;;;2.63;;
6689;SDS011;3382;51.576;8.076;2022-12-07T06:47:44;8.43;;;4.90;;
6689;SDS011;3382;51.576;8.076;2022-12-07T06:50:10;5.13;;;2.43;;
6689;SDS011;3382;51.576;8.076;2022-12-07T06:52:35;4.03;;;2.40;;
6689;SDS011;3382;51.576;8.076;2022-12-07T06:55:01;3.87;;;2.10;;
6689;SDS011;3382;51.576;8.076;2022-12-07T06:57:26;5.10;;;2.80;;
6689;SDS011;3382;51.576;8.076;2022-12-07T06:59:52;9.93;;;5.50;;
6689;SDS011;3382;51.576;8.076;2022-12-07T07:02:18;9.93;;;6.20;;
6689;SDS011;3382;51.576;8.076;2022-12-07T07:04:43;7.43;;;6.23;;
6689;SDS011;3382;51.576;8.076;2022-12-07T07:07:09;9.27;;;6.33;;
6689;SDS011;3382;51.576;8.076;2022-12-07T07:09:35;3.90;;;2.57;;
6689;SDS011;3382;51.576;8.076;2022-12-07T07:12:00;7.63;;;4.47;;
6689;SDS011;3382;51.576;8.076;2022-12-07T07:14:26;4.27;;;2.47;;
6689;SDS011;3382;51.576;8.076;2022-12-07T07:16:52;5.73;;;4.80;;
6689;SDS011;3382;51.576;8.076;2022-12-07T07:19:17;4.80;;;2.20;;
6689;SDS011;3382;51.576;8.076;2022-12-07T07:21:43;3.87;;;2.53;;
6689;SDS011;3382;51.576;8.076;2022-12-07T07:24:08;6.87;;;3.33;;
6689;SDS011;3382;51.576;8.076;2022-12-07T07:26:34;9.43;;;3.70;;
6689;SDS011;3382;51.576;8.076;2022-12-07T07:28:59;6.93;;;3.70;;
6689;SDS011;3382;51.576;8.076;2022-12-07T07:31:25;3.00;;;2.67;;
6689;SDS011;3382;51.576;8.076;2022-12-07T07:33:51;5.73;;;4.07;;
6689;SDS011;3382;51.576;8.076;2022-12-07T07:36:16;4.50;;;2.20;;
6689;SDS011;3382;51.576;8.076;2022-12-07T07:38:42;3.97;;;1.80;;
6689;SDS011;3382;51.576;8.076;2022-12-07T07:41:07;5.50;;;2.20;;
6689;SDS011;3382;51.576;8.076;2022-12-07T07:43:33;4.40;;;1.70;;
6689;SDS011;3382;51.576;8.076;2022-12-07T07:45:59;2.40;;;1.57;;
6689;SDS011;3382;51.576;8.076;2022-12-07T07:48:24;4.10;;;2.43;;
6689;SDS011;3382;51.576;8.076;2022-12-07T07:50:50;8.43;;;5.20;;
6689;SDS011;3382;51.576;8.076;2022-12-07T07:53:16;6.87;;;3.97;;
6689;SDS011;3382;51.576;8.076;2022-12-07T07:55:49;8.83;;;6.20;;
6689;SDS011;3382;51.576;8.076;2022-12-07T07:58:18;6.70;;;4.83;;
6689;SDS011;3382;51.576;8.076;2022-12-07T08:00:44;8.53;;;5.87;;
6689;SDS011;3382;51.576;8.076;2022-12-07T08:03:10;4.10;;;2.03;;
6689;SDS011;3382;51.576;8.076;2022-12-07T08:05:36;3.20;;;2.30;;
6689;SDS011;3382;51.576;8.076;2022-12-07T08:08:02;6.07;;;2.97;;
6689;SDS011;3382;51.576;8.076;2022-12-07T08:10:28;3.20;;;1.77;;
6689;SDS011;3382;51.576;8.076;2022-12-07T08:12:53;5.03;;;3.80;;
6689;SDS011;3382;51.576;8.076;2022-12-07T08:15:39;3.30;;;2.23;;
6689;SDS011;3382;51.576;8.076;2022-12-07T08:18:07;2.80;;;1.67;;
6689;SDS011;3382;51.576;8.076;2022-12-07T08:20:33;4.47;;;1.77;;
6689;SDS011;3382;51.576;8.076;2022-12-07T08:22:59;7.73;;;5.70;;
6689;SDS011;3382;51.576;8.076;2022-12-07T08:25:25;2.70;;;2.10;;
6689;SDS011;3382;51.576;8.076;2022-12-07T08:27:52;2.90;;;1.47;;
6689;SDS011;3382;51.576;8.076;2022-12-07T08:30:18;7.83;;;5.30;;
6689;SDS011;3382;51.576;8.076;2022-12-07T08:32:44;2.60;;;1.73;;
6689;SDS011;3382;51.576;8.076;2022-12-07T08:35:10;2.13;;;1.63;;
6689;SDS011;3382;51.576;8.076;2022-12-07T08:37:36;3.63;;;1.57;;
6689;SDS011;3382;51.576;8.076;2022-12-07T08:40:03;1.70;;;1.40;;
6689;SDS011;3382;51.576;8.076;2022-12-07T08:42:29;6.93;;;4.40;;
6689;SDS011;3382;51.576;8.076;2022-12-07T08:45:03;1.43;;;1.33;;
6689;SDS011;3382;51.576;8.076;2022-12-07T08:47:32;4.33;;;2.17;;
6689;SDS011;3382;51.576;8.076;2022-12-07T08:50:00;4.40;;;2.33;;
6689;SDS011;3382;51.576;8.076;2022-12-07T08:52:29;3.17;;;1.60;;
6689;SDS011;3382;51.576;8.076;2022-12-07T08:54:58;3.97;;;1.70;;
6689;SDS011;3382;51.576;8.076;2022-12-07T08:57:26;3.90;;;3.00;;
6689;SDS011;3382;51.576;8.076;2022-12-07T08:59:53;5.50;;;2.93;;
6689;SDS011;3382;51.576;8.076;2022-12-07T09:02:19;2.37;;;1.40;;
6689;SDS011;3382;51.576;8.076;2022-12-07T09:04:45;5.23;;;3.90;;
6689;SDS011;3382;51.576;8.076;2022-12-07T09:07:10;2.73;;;2.17;;
6689;SDS011;3382;51.576;8.076;2022-12-07T09:09:36;2.93;;;1.90;;
6689;SDS011;3382;51.576;8.076;2022-12-07T09:12:01;3.67;;;1.60;;
6689;SDS011;3382;51.576;8.076;2022-12-07T09:14:27;6.03;;;3.70;;
6689;SDS011;3382;51.576;8.076;2022-12-07T09:16:53;3.03;;;1.57;;
6689;SDS011;3382;51.576;8.076;2022-12-07T09:19:19;2.27;;;1.57;;
6689;SDS011;3382;51.576;8.076;2022-12-07T09:21:44;4.37;;;1.63;;
6689;SDS011;3382;51.576;8.076;2022-12-07T09:24:11;5.90;;;4.40;;
6689;SDS011;3382;51.576;8.076;2022-12-07T09:26:37;2.13;;;1.70;;
6689;SDS011;3382;51.576;8.076;2022-12-07T09:29:04;3.50;;;2.40;;
6689;SDS011;3382;51.576;8.076;2022-12-07T09:31:30;2.77;;;1.57;;
6689;SDS011;3382;51.576;8.076;2022-12-07T09:33:59;4.40;;;1.73;;
6689;SDS011;3382;51.576;8.076;2022-12-07T09:36:28;2.63;;;2.10;;
6689;SDS011;3382;51.576;8.076;2022-12-07T09:38:54;2.10;;;1.30;;
6689;SDS011;3382;51.576;8.076;2022-12-07T09:41:20;5.50;;;3.10;;
6689;SDS011;3382;51.576;8.076;2022-12-07T09:43:48;3.70;;;2.23;;
6689;SDS011;3382;51.576;8.076;2022-12-07T09:46:14;9.43;;;4.93;;
6689;SDS011;3382;51.576;8.076;2022-12-07T09:48:44;2.00;;;1.43;;
6689;SDS011;3382;51.576;8.076;2022-12-07T09:53:42;2.57;;;1.80;;
6689;SDS011;3382;51.576;8.076;2022-12-07T09:56:16;1.90;;;1.60;;
6689;SDS011;3382;51.576;8.076;2022-12-07T09:58:44;5.23;;;3.30;;
6689;SDS011;3382;51.576;8.076;2022-12-07T10:01:17;1.70;;;1.40;;
6689;SDS011;3382;51.576;8.076;2022-12-07T10:03:51;2.23;;;1.70;;
6689;SDS011;3382;51.576;8.076;2022-12-07T10:06:25;2.77;;;1.53;;
6689;SDS011;3382;51.576;8.076;2022-12-07T10:08:51;2.87;;;1.57;;
6689;SDS011;3382;51.576;8.076;2022-12-07T10:11:16;2.67;;;1.40;;
6689;SDS011;3382;51.576;8.076;2022-12-07T10:19:38;3.50;;;1.83;;
6689;SDS011;3382;51.576;8.076;2022-12-07T10:24:38;2.20;;;1.50;;
6689;SDS011;3382;51.576;8.076;2022-12-07T10:27:11;6.30;;;3.27;;
6689;SDS011;3382;51.576;8.076;2022-12-07T10:29:50;3.27;;;1.90;;
6689;SDS011;3382;51.576;8.076;2022-12-07T10:34:42;3.33;;;1.60;;
6689;SDS011;3382;51.576;8.076;2022-12-07T10:39:47;5.50;;;3.47;;
6689;SDS011;3382;51.576;8.076;2022-12-07T10:44:49;2.00;;;1.80;;
6689;SDS011;3382;51.576;8.076;2022-12-07T11:01:37;1.67;;;1.13;;
6689;SDS011;3382;51.576;8.076;2022-12-07T11:07:02;2.20;;;1.33;;
6689;SDS011;3382;51.576;8.076;2022-12-07T11:09:52;2.43;;;1.63;;
6689;SDS011;3382;51.576;8.076;2022-12-07T11:15:18;2.97;;;2.13;;
6689;SDS011;3382;51.576;8.076;2022-12-07T11:18:11;5.27;;;2.43;;
6689;SDS011;3382;51.576;8.076;2022-12-07T11:20:53;3.17;;;2.20;;
6689;SDS011;3382;51.576;8.076;2022-12-07T11:26:21;6.50;;;2.23;;
6689;SDS011;3382;51.576;8.076;2022-12-07T11:37:25;2.33;;;1.57;;
6689;SDS011;3382;51.576;8.076;2022-12-07T11:42:39;4.90;;;1.73;;
6689;SDS011;3382;51.576;8.076;2022-12-07T11:45:13;5.20;;;1.63;;
6689;SDS011;3382;51.576;8.076;2022-12-07T12:06:22;2.83;;;1.80;;
6689;SDS011;3382;51.576;8.076;2022-12-07T12:08:55;6.20;;;3.10;;
6689;SDS011;3382;51.576;8.076;2022-12-07T12:11:36;1.47;;;1.10;;
6689;SDS011;3382;51.576;8.076;2022-12-07T12:14:37;2.07;;;1.40;;
6689;SDS011;3382;51.576;8.076;2022-12-07T12:22:46;2.23;;;1.40;;
6689;SDS011;3382;51.576;8.076;2022-12-07T12:25:21;2.80;;;1.67;;
6689;SDS011;3382;51.576;8.076;2022-12-07T12:27:50;3.53;;;1.20;;
6689;SDS011;3382;51.576;8.076;2022-12-07T12:30:31;3.73;;;2.30;;
6689;SDS011;3382;51.576;8.076;2022-12-07T12:33:02;5.20;;;1.43;;
6689;SDS011;3382;51.576;8.076;2022-12-07T12:35:35;1.47;;;1.27;;
6689;SDS011;3382;51.576;8.076;2022-12-07T12:40:52;3.13;;;1.77;;
6689;SDS011;3382;51.576;8.076;2022-12-07T12:51:41;3.10;;;1.77;;
6689;SDS011;3382;51.576;8.076;2022-12-07T12:54:11;1.77;;;1.30;;
6689;SDS011;3382;51.576;8.076;2022-12-07T12:59:25;1.27;;;1.17;;
6689;SDS011;3382;51.576;8.076;2022-12-07T13:12:59;2.97;;;1.60;;
6689;SDS011;3382;51.576;8.076;2022-12-07T13:15:36;2.17;;;1.40;;
6689;SDS011;3382;51.576;8.076;2022-12-07T13:20:55;1.83;;;1.60;;
6689;SDS011;3382;51.576;8.076;2022-12-07T13:26:36;2.70;;;1.60;;
6689;SDS011;3382;51.576;8.076;2022-12-07T13:34:00;1.23;;;1.13;;
6689;SDS011;3382;51.576;8.076;2022-12-07T13:36:29;2.47;;;1.60;;
6689;SDS011;3382;51.576;8.076;2022-12-07T13:39:09;2.33;;;1.47;;
6689;SDS011;3382;51.576;8.076;2022-12-07T13:41:40;2.23;;;1.40;;
6689;SDS011;3382;51.576;8.076;2022-12-07T13:44:16;2.90;;;1.50;;
6689;SDS011;3382;51.576;8.076;2022-12-07T13:52:19;2.43;;;1.40;;
6689;SDS011;3382;51.576;8.076;2022-12-07T13:54:55;1.97;;;1.20;;
6689;SDS011;3382;51.576;8.076;2022-12-07T13:57:21;4.30;;;2.17;;
6689;SDS011;3382;51.576;8.076;2022-12-07T13:59:49;3.50;;;2.03;;
6689;SDS011;3382;51.576;8.076;2022-12-07T14:02:24;5.00;;;2.50;;
6689;SDS011;3382;51.576;8.076;2022-12-07T14:07:35;4.07;;;2.00;;
6689;SDS011;3382;51.576;8.076;2022-12-07T14:10:03;1.97;;;1.37;;
6689;SDS011;3382;51.576;8.076;2022-12-07T14:12:30;7.90;;;3.70;;
6689;SDS011;3382;51.576;8.076;2022-12-07T14:14:58;3.83;;;1.37;;
6689;SDS011;3382;51.576;8.076;2022-12-07T14:17:26;3.67;;;1.60;;
6689;SDS011;3382;51.576;8.076;2022-12-07T14:19:56;7.17;;;3.23;;
6689;SDS011;3382;51.576;8.076;2022-12-07T14:22:36;3.43;;;1.80;;
6689;SDS011;3382;51.576;8.076;2022-12-07T14:27:38;2.53;;;1.67;;
6689;SDS011;3382;51.576;8.076;2022-12-07T14:30:05;3.30;;;1.40;;
6689;SDS011;3382;51.576;8.076;2022-12-07T14:32:31;5.00;;;1.73;;
6689;SDS011;3382;51.576;8.076;2022-12-07T14:35:01;7.37;;;1.83;;
6689;SDS011;3382;51.576;8.076;2022-12-07T14:37:33;2.40;;;1.57;;
6689;SDS011;3382;51.576;8.076;2022-12-07T14:39:58;3.87;;;1.50;;
6689;SDS011;3382;51.576;8.076;2022-12-07T14:42:26;3.17;;;1.97;;
6689;SDS011;3382;51.576;8.076;2022-12-07T14:44:55;7.70;;;2.47;;
6689;SDS011;3382;51.576;8.076;2022-12-07T14:47:21;2.93;;;1.70;;
6689;SDS011;3382;51.576;8.076;2022-12-07T14:49:47;3.33;;;1.63;;
6689;SDS011;3382;51.576;8.076;2022-12-07T14:52:30;6.80;;;3.60;;
6689;SDS011;3382;51.576;8.076;2022-12-07T14:54:56;4.27;;;2.00;;
6689;SDS011;3382;51.576;8.076;2022-12-07T14:57:23;5.00;;;1.60;;
6689;SDS011;3382;51.576;8.076;2022-12-07T14:59:49;7.33;;;3.10;;
6689;SDS011;3382;51.576;8.076;2022-12-07T15:02:14;4.03;;;1.53;;
6689;SDS011;3382;51.576;8.076;2022-12-07T15:04:40;7.27;;;3.43;;
6689;SDS011;3382;51.576;8.076;2022-12-07T15:07:09;6.27;;;3.47;;
6689;SDS011;3382;51.576;8.076;2022-12-07T15:09:45;3.87;;;1.80;;
6689;SDS011;3382;51.576;8.076;2022-12-07T15:12:11;3.47;;;1.50;;
6689;SDS011;3382;51.576;8.076;2022-12-07T15:14:37;5.37;;;2.80;;
6689;SDS011;3382;51.576;8.076;2022-12-07T15:17:02;5.33;;;1.90;;
6689;SDS011;3382;51.576;8.076;2022-12-07T15:19:28;5.17;;;1.53;;
6689;SDS011;3382;51.576;8.076;2022-12-07T15:21:54;7.67;;;2.23;;
6689;SDS011;3382;51.576;8.076;2022-12-07T15:24:20;5.07;;;1.50;;
6689;SDS011;3382;51.576;8.076;2022-12-07T15:26:46;4.77;;;2.87;;
6689;SDS011;3382;51.576;8.076;2022-12-07T15:29:12;3.80;;;1.87;;
6689;SDS011;3382;51.576;8.076;2022-12-07T15:31:39;4.40;;;2.10;;
6689;SDS011;3382;51.576;8.076;2022-12-07T15:34:05;7.67;;;2.90;;
6689;SDS011;3382;51.576;8.076;2022-12-07T15:36:31;10.83;;;2.73;;
6689;SDS011;3382;51.576;8.076;2022-12-07T15:38:57;9.00;;;3.00;;
6689;SDS011;3382;51.576;8.076;2022-12-07T15:41:23;8.27;;;2.90;;
6689;SDS011;3382;51.576;8.076;2022-12-07T15:43:50;8.33;;;2.87;;
6689;SDS011;3382;51.576;8.076;2022-12-07T15:46:38;8.30;;;3.33;;
6689;SDS011;3382;51.576;8.076;2022-12-07T15:49:07;5.20;;;3.00;;
6689;SDS011;3382;51.576;8.076;2022-12-07T15:51:36;8.53;;;2.83;;
6689;SDS011;3382;51.576;8.076;2022-12-07T15:54:02;10.10;;;2.70;;
6689;SDS011;3382;51.576;8.076;2022-12-07T15:56:27;12.07;;;3.30;;
6689;SDS011;3382;51.576;8.076;2022-12-07T15:58:53;9.93;;;2.97;;
6689;SDS011;3382;51.576;8.076;2022-12-07T16:01:19;6.80;;;3.07;;
6689;SDS011;3382;51.576;8.076;2022-12-07T16:03:45;6.30;;;3.30;;
6689;SDS011;3382;51.576;8.076;2022-12-07T16:06:11;8.43;;;4.33;;
6689;SDS011;3382;51.576;8.076;2022-12-07T16:08:40;11.57;;;5.43;;
6689;SDS011;3382;51.576;8.076;2022-12-07T16:11:08;6.33;;;3.53;;
6689;SDS011;3382;51.576;8.076;2022-12-07T16:13:34;5.93;;;3.33;;
6689;SDS011;3382;51.576;8.076;2022-12-07T16:16:03;8.03;;;3.20;;
6689;SDS011;3382;51.576;8.076;2022-12-07T16:18:30;8.60;;;3.20;;
6689;SDS011;3382;51.576;8.076;2022-12-07T16:20:56;9.17;;;3.47;;
6689;SDS011;3382;51.576;8.076;2022-12-07T16:23:21;7.03;;;3.90;;
6689;SDS011;3382;51.576;8.076;2022-12-07T16:25:47;9.90;;;4.40;;
6689;SDS011;3382;51.576;8.076;2022-12-07T16:28:13;11.83;;;5.00;;
6689;SDS011;3382;51.576;8.076;2022-12-07T16:30:38;13.40;;;6.10;;
6689;SDS011;3382;51.576;8.076;2022-12-07T16:33:04;10.17;;;5.73;;
6689;SDS011;3382;51.576;8.076;2022-12-07T16:35:29;11.67;;;6.83;;
6689;SDS011;3382;51.576;8.076;2022-12-07T16:37:55;12.33;;;6.97;;
6689;SDS011;3382;51.576;8.076;2022-12-07T16:40:20;12.80;;;9.70;;
6689;SDS011;3382;51.576;8.076;2022-12-07T16:42:46;3.20;;;1.73;;
6689;SDS011;3382;51.576;8.076;2022-12-07T16:45:12;8.43;;;3.63;;
6689;SDS011;3382;51.576;8.076;2022-12-07T16:47:38;17.67;;;6.47;;
6689;SDS011;3382;51.576;8.076;2022-12-07T16:50:04;9.73;;;6.50;;
6689;SDS011;3382;51.576;8.076;2022-12-07T16:52:30;11.93;;;7.07;;
6689;SDS011;3382;51.576;8.076;2022-12-07T16:54:56;12.30;;;7.00;;
6689;SDS011;3382;51.576;8.076;2022-12-07T16:57:21;10.57;;;7.70;;
6689;SDS011;3382;51.576;8.076;2022-12-07T16:59:47;10.03;;;7.53;;
6689;SDS011;3382;51.576;8.076;2022-12-07T17:02:13;14.23;;;7.87;;
6689;SDS011;3382;51.576;8.076;2022-12-07T17:04:38;19.60;;;9.03;;
6689;SDS011;3382;51.576;8.076;2022-12-07T17:07:07;18.10;;;9.77;;
6689;SDS011;3382;51.576;8.076;2022-12-07T17:09:34;16.63;;;10.10;;
6689;SDS011;3382;51.576;8.076;2022-12-07T17:12:00;19.13;;;10.53;;
6689;SDS011;3382;51.576;8.076;2022-12-07T17:14:26;12.40;;;7.97;;
6689;SDS011;3382;51.576;8.076;2022-12-07T17:17:10;17.30;;;12.07;;
6689;SDS011;3382;51.576;8.076;2022-12-07T17:19:36;20.40;;;12.10;;
6689;SDS011;3382;51.576;8.076;2022-12-07T17:22:01;14.53;;;9.70;;
6689;SDS011;3382;51.576;8.076;2022-12-07T17:24:27;20.67;;;11.20;;
6689;SDS011;3382;51.576;8.076;2022-12-07T17:26:53;18.03;;;11.13;;
6689;SDS011;3382;51.576;8.076;2022-12-07T17:29:18;19.90;;;13.37;;
6689;SDS011;3382;51.576;8.076;2022-12-07T17:31:45;18.47;;;12.80;;
6689;SDS011;3382;51.576;8.076;2022-12-07T17:34:12;15.77;;;10.53;;
6689;SDS011;3382;51.576;8.076;2022-12-07T17:36:39;18.13;;;11.90;;
6689;SDS011;3382;51.576;8.076;2022-12-07T17:39:08;15.40;;;10.63;;
6689;SDS011;3382;51.576;8.076;2022-12-07T17:41:35;19.10;;;13.23;;
6689;SDS011;3382;51.576;8.076;2022-12-07T17:44:20;19.30;;;13.33;;
6689;SDS011;3382;51.576;8.076;2022-12-07T17:46:46;16.63;;;11.80;;
6689;SDS011;3382;51.576;8.076;2022-12-07T17:49:13;13.80;;;9.90;;
6689;SDS011;3382;51.576;8.076;2022-12-07T17:51:39;13.60;;;9.37;;
6689;SDS011;3382;51.576;8.076;2022-12-07T17:54:23;12.93;;;9.30;;
6689;SDS011;3382;51.576;8.076;2022-12-07T17:56:48;13.83;;;8.83;;
6689;SDS011;3382;51.576;8.076;2022-12-07T17:59:14;10.93;;;8.83;;
6689;SDS011;3382;51.576;8.076;2022-12-07T18:01:40;13.07;;;9.37;;
6689;SDS011;3382;51.576;8.076;2022-12-07T18:04:06;15.23;;;9.17;;